createdAt,value
2023-04-25T00:00:58.446Z,0.52
2023-04-25T00:01:58.452Z,0.54
2023-04-25T00:02:57.592Z,0.53
2023-04-25T00:03:58.862Z,0.51
2023-04-25T00:04:58.578Z,0.56
2023-04-25T00:05:58.519Z,0.53
2023-04-25T00:06:58.404Z,0.53
2023-04-25T00:07:58.411Z,0.51
2023-04-25T00:08:58.410Z,0.51
2023-04-25T00:09:57.389Z,0.53
2023-04-25T00:10:58.374Z,0.53
2023-04-25T00:11:58.371Z,0.52
2023-04-25T00:12:58.460Z,0.51
2023-04-25T00:13:57.371Z,0.55
2023-04-25T00:14:58.371Z,0.52
2023-04-25T00:15:58.395Z,0.54
2023-04-25T00:16:57.328Z,0.53
2023-04-25T00:17:58.351Z,0.51
2023-04-25T00:18:58.335Z,0.52
2023-04-25T00:19:58.308Z,0.54
2023-04-25T00:20:58.309Z,0.52
2023-04-25T00:21:58.455Z,0.51
2023-04-25T00:22:57.373Z,0.51
2023-04-25T00:23:58.305Z,0.53
2023-04-25T00:24:58.277Z,0.52
2023-04-25T00:25:58.269Z,0.51
2023-04-25T00:26:57.268Z,0.51
2023-04-25T00:27:58.266Z,0.53
2023-04-25T00:28:58.278Z,0.54
2023-04-25T00:29:58.238Z,0.52
2023-04-25T00:30:58.241Z,0.53
2023-04-25T00:31:58.332Z,0.53
2023-04-25T00:32:57.272Z,0.53
2023-04-25T00:33:58.255Z,0.52
2023-04-25T00:34:58.207Z,0.51
2023-04-25T00:35:57.187Z,0.54
2023-04-25T00:36:57.179Z,0.52
2023-04-25T00:37:58.187Z,0.51
2023-04-25T00:38:58.202Z,0.52
2023-04-25T00:39:57.219Z,0.52
2023-04-25T00:40:58.158Z,0.51
2023-04-25T00:41:57.143Z,0.53
2023-04-25T00:42:57.165Z,0.51
2023-04-25T00:43:57.141Z,0.55
2023-04-25T00:44:58.156Z,0.53
2023-04-25T00:45:58.123Z,0.53
2023-04-25T00:46:57.169Z,0.53
2023-04-25T00:47:57.194Z,0.54
2023-04-25T00:48:58.099Z,0.52
2023-04-25T00:49:57.102Z,0.53
2023-04-25T00:50:57.116Z,0.51
2023-04-25T00:51:57.089Z,0.52
2023-04-25T00:52:57.073Z,0.52
2023-04-25T00:53:57.081Z,0.55
2023-04-25T00:54:58.066Z,0.52
2023-04-25T00:55:58.106Z,0.51
2023-04-25T00:56:58.032Z,0.52
2023-04-25T00:57:58.046Z,0.55
2023-04-25T00:58:58.025Z,0.52
2023-04-25T00:59:57.011Z,0.53
2023-04-25T01:00:58.081Z,0.53
2023-04-25T01:01:57.107Z,0.52
2023-04-25T01:02:57.140Z,0.55
2023-04-25T01:03:58.081Z,0.51
2023-04-25T01:04:58.000Z,0.53
2023-04-25T01:05:57.976Z,0.52
2023-04-25T01:06:56.991Z,0.53
2023-04-25T01:07:56.976Z,0.54
2023-04-25T01:08:58.016Z,0.54
2023-04-25T01:09:56.970Z,0.53
2023-04-25T01:10:57.956Z,0.54
2023-04-25T01:11:56.951Z,0.52
2023-04-25T01:12:57.965Z,0.54
2023-04-25T01:13:57.947Z,0.54
2023-04-25T01:14:57.915Z,0.54
2023-04-25T01:15:57.905Z,0.52
2023-04-25T01:16:58.112Z,0.53
2023-04-25T01:17:56.914Z,0.54
2023-04-25T01:18:56.905Z,0.52
2023-04-25T01:19:56.901Z,0.52
2023-04-25T01:20:56.874Z,0.53
2023-04-25T01:21:57.878Z,0.53
2023-04-25T01:22:57.943Z,0.54
2023-04-25T01:23:57.927Z,0.55
2023-04-25T01:24:56.915Z,0.51
2023-04-25T01:25:57.914Z,0.53
2023-04-25T01:26:57.943Z,0.54
2023-04-25T01:27:57.930Z,0.53
2023-04-25T01:28:57.955Z,0.53
2023-04-25T01:29:57.958Z,0.52
2023-04-25T01:30:56.939Z,0.51
2023-04-25T01:31:57.120Z,0.52
2023-04-25T01:32:57.029Z,0.54
2023-04-25T01:33:56.969Z,0.54
2023-04-25T01:34:56.959Z,0.51
2023-04-25T01:35:56.983Z,0.52
2023-04-25T01:36:57.969Z,0.53
2023-04-25T01:37:57.975Z,0.52
2023-04-25T01:38:56.978Z,0.51
2023-04-25T01:39:57.993Z,0.54
2023-04-25T01:40:57.994Z,0.50
2023-04-25T01:41:57.654Z,0.50
2023-04-25T01:42:57.069Z,0.51
2023-04-25T01:43:56.985Z,0.54
2023-04-25T01:44:58.000Z,0.51
2023-04-25T01:45:57.074Z,0.51
2023-04-25T01:46:58.042Z,0.53
2023-04-25T01:47:58.173Z,0.53
2023-04-25T01:48:57.048Z,0.51
2023-04-25T01:49:58.013Z,0.52
2023-04-25T01:50:58.042Z,0.52
2023-04-25T01:51:58.015Z,0.54
2023-04-25T01:52:58.021Z,0.52
2023-04-25T01:54:00.434Z,0.53
2023-04-25T01:54:58.046Z,0.54
2023-04-25T01:55:57.050Z,0.52
2023-04-25T01:56:57.046Z,0.54
2023-04-25T01:57:58.037Z,0.52
2023-04-25T01:58:57.997Z,0.51
2023-04-25T01:59:57.999Z,0.53
2023-04-25T02:00:58.004Z,0.54
2023-04-25T02:01:58.081Z,0.53
2023-04-25T02:02:58.081Z,0.52
2023-04-25T02:03:57.515Z,0.55
2023-04-25T02:04:57.998Z,0.54
2023-04-25T02:05:57.949Z,0.52
2023-04-25T02:06:56.939Z,0.53
2023-04-25T02:07:57.949Z,0.52
2023-04-25T02:08:57.939Z,0.52
2023-04-25T02:09:57.974Z,0.54
2023-04-25T02:10:57.925Z,0.53
2023-04-25T02:11:57.932Z,0.51
2023-04-25T02:12:56.913Z,0.54
2023-04-25T02:13:56.895Z,0.53
2023-04-25T02:14:57.929Z,0.53
2023-04-25T02:15:58.060Z,0.52
2023-04-25T02:16:58.190Z,0.52
2023-04-25T02:17:57.940Z,0.52
2023-04-25T02:18:56.879Z,0.51
2023-04-25T02:19:56.859Z,0.52
2023-04-25T02:20:57.879Z,0.54
2023-04-25T02:21:57.854Z,0.55
2023-04-25T02:22:56.838Z,0.51
2023-04-25T02:23:57.842Z,0.54
2023-04-25T02:24:57.829Z,0.53
2023-04-25T02:25:57.845Z,0.53
2023-04-25T02:26:57.828Z,0.52
2023-04-25T02:27:57.803Z,0.54
2023-04-25T02:28:57.805Z,0.52
2023-04-25T02:29:57.809Z,0.53
2023-04-25T02:30:56.834Z,0.54
2023-04-25T02:31:57.868Z,0.52
2023-04-25T02:32:57.834Z,0.55
2023-04-25T02:33:56.758Z,0.55
2023-04-25T02:34:57.787Z,0.55
2023-04-25T02:35:56.745Z,0.54
2023-04-25T02:36:57.788Z,0.55
2023-04-25T02:37:57.732Z,0.53
2023-04-25T02:38:57.818Z,0.51
2023-04-25T02:39:57.749Z,0.52
2023-04-25T02:40:57.707Z,0.54
2023-04-25T02:41:57.711Z,0.53
2023-04-25T02:42:57.784Z,0.54
2023-04-25T02:43:57.698Z,0.53
2023-04-25T02:44:57.705Z,0.54
2023-04-25T02:45:57.684Z,0.51
2023-04-25T02:46:57.671Z,0.52
2023-04-25T02:47:56.704Z,0.54
2023-04-25T02:48:56.662Z,0.52
2023-04-25T02:49:57.649Z,0.52
2023-04-25T02:50:56.747Z,0.52
2023-04-25T02:51:57.658Z,0.53
2023-04-25T02:52:56.653Z,0.54
2023-04-25T02:53:57.658Z,0.52
2023-04-25T02:54:57.650Z,0.55
2023-04-25T02:55:57.655Z,0.52
2023-04-25T02:56:57.611Z,0.53
2023-04-25T02:57:56.610Z,0.53
2023-04-25T02:58:56.587Z,0.51
2023-04-25T02:59:57.611Z,0.51
2023-04-25T03:00:56.611Z,0.54
2023-04-25T03:01:57.570Z,0.53
2023-04-25T03:02:57.646Z,0.52
2023-04-25T03:03:56.631Z,0.55
2023-04-25T03:04:56.541Z,0.55
2023-04-25T03:05:56.532Z,0.53
2023-04-25T03:06:57.549Z,0.53
2023-04-25T03:07:57.535Z,0.51
2023-04-25T03:08:57.534Z,0.53
2023-04-25T03:09:57.515Z,0.53
2023-04-25T03:10:56.519Z,0.54
2023-04-25T03:11:57.492Z,0.52
2023-04-25T03:12:56.491Z,0.55
2023-04-25T03:13:57.490Z,0.52
2023-04-25T03:14:56.489Z,0.52
2023-04-25T03:15:56.475Z,0.53
2023-04-25T03:16:57.550Z,0.53
2023-04-25T03:17:57.480Z,0.53
2023-04-25T03:18:56.433Z,0.53
2023-04-25T03:19:57.431Z,0.56
2023-04-25T03:20:57.434Z,0.53
2023-04-25T03:21:57.423Z,0.53
2023-04-25T03:22:57.419Z,0.55
2023-04-25T03:23:57.416Z,0.53
2023-04-25T03:24:57.433Z,0.54
2023-04-25T03:25:56.411Z,0.55
2023-04-25T03:26:56.431Z,0.55
2023-04-25T03:27:57.403Z,0.56
2023-04-25T03:28:56.614Z,0.55
2023-04-25T03:29:56.411Z,0.54
2023-04-25T03:30:57.382Z,0.55
2023-04-25T03:31:57.647Z,0.55
2023-04-25T03:32:57.378Z,0.55
2023-04-25T03:33:57.375Z,0.55
2023-04-25T03:34:57.352Z,0.56
2023-04-25T03:35:57.336Z,0.57
2023-04-25T03:36:57.358Z,0.56
2023-04-25T03:37:57.319Z,0.57
2023-04-25T03:38:56.307Z,0.57
2023-04-25T03:39:57.315Z,0.56
2023-04-25T03:40:57.373Z,0.58
2023-04-25T03:41:57.274Z,0.55
2023-04-25T03:42:57.264Z,0.58
2023-04-25T03:43:56.279Z,0.58
2023-04-25T03:44:56.267Z,0.55
2023-04-25T03:45:56.293Z,0.57
2023-04-25T03:46:56.264Z,0.55
2023-04-25T03:47:56.327Z,0.56
2023-04-25T03:48:56.238Z,0.57
2023-04-25T03:49:57.229Z,0.58
2023-04-25T03:50:57.221Z,0.56
2023-04-25T03:51:57.231Z,0.57
2023-04-25T03:52:57.232Z,0.57
2023-04-25T03:53:57.220Z,0.55
2023-04-25T03:54:56.298Z,0.59
2023-04-25T03:55:57.187Z,0.57
2023-04-25T03:56:56.193Z,0.56
2023-04-25T03:57:57.181Z,0.56
2023-04-25T03:58:57.185Z,0.55
2023-04-25T03:59:56.184Z,0.58
2023-04-25T04:00:57.220Z,0.58
2023-04-25T04:01:57.154Z,0.57
2023-04-25T04:02:56.263Z,0.55
2023-04-25T04:03:56.787Z,0.57
2023-04-25T04:04:57.240Z,0.56
2023-04-25T04:05:56.206Z,0.56
2023-04-25T04:06:57.122Z,0.56
2023-04-25T04:07:56.124Z,0.55
2023-04-25T04:08:57.094Z,0.58
2023-04-25T04:09:57.103Z,0.58
2023-04-25T04:10:56.094Z,0.57
2023-04-25T04:11:57.106Z,0.56
2023-04-25T04:12:56.129Z,0.56
2023-04-25T04:13:57.111Z,0.55
2023-04-25T04:14:57.115Z,0.57
2023-04-25T04:15:57.174Z,0.56
2023-04-25T04:16:57.134Z,0.56
2023-04-25T04:17:56.262Z,0.56
2023-04-25T04:18:56.177Z,0.57
2023-04-25T04:19:56.198Z,0.56
2023-04-25T04:20:56.243Z,0.58
2023-04-25T04:21:57.244Z,0.58
2023-04-25T04:22:57.258Z,0.58
2023-04-25T04:23:56.323Z,0.55
2023-04-25T04:24:57.321Z,0.55
2023-04-25T04:25:56.409Z,0.56
2023-04-25T04:26:56.340Z,0.56
2023-04-25T04:27:57.522Z,0.58
2023-04-25T04:28:57.337Z,0.56
2023-04-25T04:29:56.316Z,0.58
2023-04-25T04:30:57.342Z,0.58
2023-04-25T04:31:57.392Z,0.56
2023-04-25T04:32:57.476Z,0.57
2023-04-25T04:33:56.320Z,0.56
2023-04-25T04:34:57.328Z,0.56
2023-04-25T04:35:57.346Z,0.56
2023-04-25T04:36:57.351Z,0.56
2023-04-25T04:37:57.368Z,0.57
2023-04-25T04:38:57.422Z,0.56
2023-04-25T04:39:57.495Z,0.57
2023-04-25T04:40:57.501Z,0.57
2023-04-25T04:41:57.479Z,0.57
2023-04-25T04:42:56.455Z,0.55
2023-04-25T04:43:57.502Z,0.56
2023-04-25T04:44:57.477Z,0.56
2023-04-25T04:45:56.484Z,0.57
2023-04-25T04:46:56.549Z,0.55
2023-04-25T04:47:57.537Z,0.55
2023-04-25T04:48:56.526Z,0.57
2023-04-25T04:49:56.548Z,0.56
2023-04-25T04:50:57.567Z,0.55
2023-04-25T04:51:59.638Z,0.54
2023-04-25T04:52:57.568Z,0.56
2023-04-25T04:53:57.576Z,0.56
2023-04-25T04:54:57.564Z,0.56
2023-04-25T04:55:57.589Z,0.55
2023-04-25T04:56:56.547Z,0.57
2023-04-25T04:57:56.565Z,0.56
2023-04-25T04:58:57.556Z,0.55
2023-04-25T04:59:57.562Z,0.57
2023-04-25T05:00:56.558Z,0.56
2023-04-25T05:01:57.780Z,0.55
2023-04-25T05:02:57.663Z,0.55
2023-04-25T05:03:56.882Z,0.56
2023-04-25T05:04:57.875Z,0.55
2023-04-25T05:05:57.485Z,0.55
2023-04-25T05:06:57.498Z,0.55
2023-04-25T05:07:56.501Z,0.53
2023-04-25T05:08:56.467Z,0.56
2023-04-25T05:09:57.471Z,0.54
2023-04-25T05:10:57.485Z,0.55
2023-04-25T05:11:56.450Z,0.54
2023-04-25T05:12:57.490Z,0.54
2023-04-25T05:13:57.434Z,0.55
2023-04-25T05:14:56.441Z,0.54
2023-04-25T05:15:56.435Z,0.54
2023-04-25T05:16:57.520Z,0.54
2023-04-25T05:17:56.511Z,0.54
2023-04-25T05:18:56.648Z,0.54
2023-04-25T05:19:57.579Z,0.54
2023-04-25T05:20:56.510Z,0.56
2023-04-25T05:21:56.406Z,0.55
2023-04-25T05:22:57.429Z,0.54
2023-04-25T05:23:57.526Z,0.55
2023-04-25T05:24:57.459Z,0.57
2023-04-25T05:25:56.467Z,0.57
2023-04-25T05:26:57.493Z,0.56
2023-04-25T05:27:56.477Z,0.58
2023-04-25T05:28:56.503Z,0.57
2023-04-25T05:29:56.542Z,0.57
2023-04-25T05:30:57.594Z,0.55
2023-04-25T05:31:56.698Z,0.60
2023-04-25T05:32:56.632Z,0.62
2023-04-25T05:33:57.617Z,0.59
2023-04-25T05:34:57.665Z,0.58
2023-04-25T05:35:57.632Z,0.59
2023-04-25T05:36:56.735Z,0.60
2023-04-25T05:37:56.734Z,0.59
2023-04-25T05:38:57.769Z,0.56
2023-04-25T05:39:56.861Z,0.58
2023-04-25T05:40:57.852Z,0.56
2023-04-25T05:41:57.883Z,0.62
2023-04-25T05:42:56.944Z,0.60
2023-04-25T05:43:58.395Z,0.59
2023-04-25T05:44:58.069Z,0.62
2023-04-25T05:45:58.161Z,0.93
2023-04-25T05:46:57.906Z,0.83
2023-04-25T05:47:58.303Z,0.66
2023-04-25T05:48:57.212Z,0.60
2023-04-25T05:49:58.251Z,0.61
2023-04-25T05:50:58.441Z,0.56
2023-04-25T05:51:58.349Z,0.53
2023-04-25T05:52:58.349Z,0.80
2023-04-25T05:53:58.386Z,0.80
2023-04-25T05:54:57.409Z,0.74
2023-04-25T05:55:57.407Z,0.70
2023-04-25T05:56:58.432Z,0.74
2023-04-25T05:57:57.439Z,0.64
2023-04-25T05:58:58.405Z,0.59
2023-04-25T05:59:57.815Z,0.80
2023-04-25T06:00:57.897Z,0.82
2023-04-25T06:01:58.549Z,0.85
2023-04-25T06:02:59.059Z,0.62
2023-04-25T06:03:58.969Z,0.70
2023-04-25T06:04:57.951Z,0.74
2023-04-25T06:05:59.014Z,0.70
2023-04-25T06:06:58.788Z,0.75
2023-04-25T06:07:58.752Z,0.76
2023-04-25T06:08:58.848Z,0.76
2023-04-25T06:09:57.764Z,0.76
2023-04-25T06:10:58.790Z,0.76
2023-04-25T06:11:58.911Z,0.77
2023-04-25T06:12:58.903Z,0.76
2023-04-25T06:13:58.984Z,0.76
2023-04-25T06:14:59.033Z,0.78
2023-04-25T06:15:59.112Z,0.77
2023-04-25T06:16:58.114Z,0.79
2023-04-25T06:17:58.253Z,0.78
2023-04-25T06:18:59.164Z,0.78
2023-04-25T06:19:59.198Z,0.82
2023-04-25T06:20:58.230Z,0.78
2023-04-25T06:21:59.283Z,0.80
2023-04-25T06:22:58.283Z,0.82
2023-04-25T06:23:58.314Z,0.81
2023-04-25T06:24:59.547Z,0.81
2023-04-25T06:25:59.628Z,0.84
2023-04-25T06:26:58.476Z,0.80
2023-04-25T06:27:58.541Z,0.87
2023-04-25T06:28:59.464Z,0.86
2023-04-25T06:29:58.489Z,0.85
2023-04-25T06:30:58.567Z,0.85
2023-04-25T06:31:59.539Z,0.84
2023-04-25T06:32:59.615Z,0.86
2023-04-25T06:33:59.624Z,0.86
2023-04-25T06:34:58.566Z,0.81
2023-04-25T06:35:59.630Z,0.84
2023-04-25T06:36:59.603Z,0.84
2023-04-25T06:37:59.651Z,0.79
2023-04-25T06:38:58.657Z,0.79
2023-04-25T06:39:58.752Z,0.81
2023-04-25T06:40:59.672Z,0.79
2023-04-25T06:41:59.098Z,0.77
2023-04-25T06:42:58.695Z,0.76
2023-04-25T06:43:59.697Z,0.77
2023-04-25T06:44:58.823Z,0.80
2023-04-25T06:45:59.730Z,0.77
2023-04-25T06:47:00.160Z,0.77
2023-04-25T06:47:59.894Z,0.77
2023-04-25T06:48:59.746Z,0.82
2023-04-25T06:49:58.832Z,0.81
2023-04-25T06:50:59.882Z,0.80
2023-04-25T06:52:00.376Z,0.82
2023-04-25T06:52:59.850Z,0.88
2023-04-25T06:53:58.891Z,1.02
2023-04-25T06:54:59.193Z,1.25
2023-04-25T06:55:58.976Z,1.32
2023-04-25T06:57:00.265Z,1.47
2023-04-25T06:57:59.112Z,1.48
2023-04-25T06:59:00.045Z,1.54
2023-04-25T07:00:02.112Z,1.63
2023-04-25T07:00:59.170Z,1.87
2023-04-25T07:02:00.126Z,1.90
2023-04-25T07:02:59.352Z,2.04
2023-04-25T07:04:00.186Z,2.14
2023-04-25T07:04:59.064Z,1.98
2023-04-25T07:05:59.027Z,1.77
2023-04-25T07:07:06.553Z,1.60
2023-04-25T07:07:58.991Z,1.60
2023-04-25T07:09:00.009Z,1.61
2023-04-25T07:10:00.002Z,1.56
2023-04-25T07:11:00.028Z,1.59
2023-04-25T07:11:59.982Z,1.42
2023-04-25T07:12:59.983Z,1.34
2023-04-25T07:13:59.961Z,1.32
2023-04-25T07:14:59.956Z,1.36
2023-04-25T07:15:59.993Z,1.27
2023-04-25T07:17:00.037Z,1.20
2023-04-25T07:17:59.965Z,1.21
2023-04-25T07:18:59.931Z,1.24
2023-04-25T07:19:58.937Z,1.13
2023-04-25T07:20:58.909Z,1.11
2023-04-25T07:21:58.917Z,1.11
2023-04-25T07:22:58.975Z,1.04
2023-04-25T07:23:58.927Z,1.07
2023-04-25T07:24:59.890Z,1.02
2023-04-25T07:25:59.899Z,0.98
2023-04-25T07:26:59.875Z,0.94
2023-04-25T07:27:59.888Z,0.94
2023-04-25T07:28:59.878Z,0.93
2023-04-25T07:29:59.899Z,0.94
2023-04-25T07:30:59.850Z,0.91
2023-04-25T07:31:58.893Z,0.90
2023-04-25T07:32:59.838Z,0.88
2023-04-25T07:33:59.940Z,0.87
2023-04-25T07:34:58.830Z,0.91
2023-04-25T07:35:59.830Z,0.88
2023-04-25T07:36:59.816Z,0.89
2023-04-25T07:37:59.812Z,0.87
2023-04-25T07:38:59.827Z,0.84
2023-04-25T07:39:59.791Z,0.92
2023-04-25T07:40:59.774Z,0.89
2023-04-25T07:41:58.777Z,0.88
2023-04-25T07:42:59.786Z,0.87
2023-04-25T07:43:59.777Z,0.87
2023-04-25T07:44:58.776Z,0.84
2023-04-25T07:45:58.785Z,0.87
2023-04-25T07:47:00.039Z,0.96
2023-04-25T07:48:00.307Z,0.90
2023-04-25T07:48:59.715Z,0.76
2023-04-25T07:49:59.720Z,0.55
2023-04-25T07:50:59.739Z,0.50
2023-04-25T07:51:59.696Z,0.63
2023-04-25T07:52:58.741Z,0.72
2023-04-25T07:53:59.684Z,0.80
2023-04-25T07:54:59.693Z,0.88
2023-04-25T07:55:58.710Z,1.01
2023-04-25T07:56:59.769Z,1.03
2023-04-25T07:57:59.781Z,1.05
2023-04-25T07:58:59.833Z,1.18
2023-04-25T07:59:59.842Z,1.24
2023-04-25T08:00:59.894Z,1.17
2023-04-25T08:01:59.855Z,1.44
2023-04-25T08:03:00.066Z,1.31
2023-04-25T08:04:00.196Z,1.35
2023-04-25T08:04:58.996Z,1.37
2023-04-25T08:05:59.103Z,1.27
2023-04-25T08:06:59.867Z,1.31
2023-04-25T08:07:59.879Z,1.28
2023-04-25T08:08:58.843Z,1.32
2023-04-25T08:09:59.863Z,1.28
2023-04-25T08:10:59.856Z,1.26
2023-04-25T08:11:59.832Z,1.30
2023-04-25T08:12:59.854Z,1.23
2023-04-25T08:13:59.843Z,1.23
2023-04-25T08:14:58.823Z,1.22
2023-04-25T08:15:59.872Z,1.26
2023-04-25T08:16:59.818Z,1.21
2023-04-25T08:17:59.853Z,1.18
2023-04-25T08:18:59.862Z,1.20
2023-04-25T08:19:58.829Z,1.14
2023-04-25T08:20:58.825Z,1.17
2023-04-25T08:21:59.818Z,1.15
2023-04-25T08:22:59.868Z,1.12
2023-04-25T08:23:59.890Z,1.15
2023-04-25T08:24:59.881Z,1.08
2023-04-25T08:25:59.913Z,1.09
2023-04-25T08:27:00.143Z,1.09
2023-04-25T08:27:58.973Z,1.08
2023-04-25T08:29:00.007Z,1.09
2023-04-25T08:30:00.101Z,1.09
2023-04-25T08:31:00.244Z,1.09
2023-04-25T08:32:00.208Z,1.09
2023-04-25T08:33:00.285Z,1.11
2023-04-25T08:33:59.258Z,1.10
2023-04-25T08:35:00.305Z,1.08
2023-04-25T08:36:00.279Z,1.11
2023-04-25T08:36:59.310Z,1.13
2023-04-25T08:38:00.271Z,1.13
2023-04-25T08:38:59.268Z,1.15
2023-04-25T08:40:00.272Z,1.13
2023-04-25T08:41:00.292Z,1.18
2023-04-25T08:41:59.284Z,1.20
2023-04-25T08:43:00.769Z,1.45
2023-04-25T08:44:00.383Z,1.57
2023-04-25T08:44:59.381Z,1.68
2023-04-25T08:45:59.402Z,1.70
2023-04-25T08:47:00.471Z,2.42
2023-04-25T08:48:00.457Z,2.08
2023-04-25T08:49:00.443Z,1.81
2023-04-25T08:50:00.515Z,1.34
2023-04-25T08:51:00.544Z,0.90
2023-04-25T08:52:00.582Z,0.70
2023-04-25T08:53:00.594Z,0.41
2023-04-25T08:54:06.403Z,0.57
2023-04-25T08:55:00.602Z,0.57
2023-04-25T08:55:59.582Z,0.61
2023-04-25T08:57:00.597Z,0.72
2023-04-25T08:57:59.747Z,0.85
2023-04-25T08:59:00.588Z,1.00
2023-04-25T08:59:59.575Z,0.95
2023-04-25T09:01:00.565Z,1.01
2023-04-25T09:01:59.691Z,1.05
2023-04-25T09:02:59.823Z,1.19
2023-04-25T09:04:00.636Z,1.27
2023-04-25T09:04:59.528Z,1.27
2023-04-25T09:06:00.553Z,1.45
2023-04-25T09:07:00.523Z,1.63
2023-04-25T09:08:00.916Z,1.66
2023-04-25T09:08:59.502Z,1.70
2023-04-25T09:10:00.512Z,1.58
2023-04-25T09:10:59.490Z,1.57
2023-04-25T09:12:00.494Z,1.58
2023-04-25T09:13:00.516Z,1.68
2023-04-25T09:14:00.496Z,1.58
2023-04-25T09:14:59.617Z,1.59
2023-04-25T09:16:00.518Z,1.58
2023-04-25T09:17:00.707Z,1.55
2023-04-25T09:18:00.572Z,1.58
2023-04-25T09:19:00.449Z,1.60
2023-04-25T09:20:00.467Z,1.49
2023-04-25T09:21:02.233Z,1.49
2023-04-25T09:22:00.438Z,1.49
2023-04-25T09:23:00.413Z,1.50
2023-04-25T09:24:00.410Z,1.50
2023-04-25T09:25:00.393Z,1.51
2023-04-25T09:26:00.378Z,1.53
2023-04-25T09:27:00.378Z,1.48
2023-04-25T09:27:59.366Z,1.48
2023-04-25T09:29:00.381Z,1.50
2023-04-25T09:29:59.385Z,1.48
2023-04-25T09:30:59.407Z,1.45
2023-04-25T09:31:59.351Z,1.46
2023-04-25T09:33:00.370Z,1.50
2023-04-25T09:34:00.489Z,1.51
2023-04-25T09:34:59.312Z,1.43
2023-04-25T09:36:00.328Z,1.41
2023-04-25T09:37:00.322Z,1.40
2023-04-25T09:38:00.316Z,1.38
2023-04-25T09:39:00.296Z,1.38
2023-04-25T09:40:00.297Z,1.38
2023-04-25T09:41:00.297Z,1.35
2023-04-25T09:42:00.279Z,1.33
2023-04-25T09:42:59.285Z,1.38
2023-04-25T09:43:59.514Z,1.43
2023-04-25T09:45:00.331Z,1.45
2023-04-25T09:46:00.375Z,1.49
2023-04-25T09:47:00.367Z,1.29
2023-04-25T09:47:59.355Z,1.00
2023-04-25T09:48:59.243Z,0.63
2023-04-25T09:49:59.248Z,0.49
2023-04-25T09:51:00.240Z,0.41
2023-04-25T09:51:59.218Z,0.59
2023-04-25T09:53:00.252Z,0.66
2023-04-25T09:54:00.194Z,0.68
2023-04-25T09:55:00.180Z,0.75
2023-04-25T09:56:00.173Z,0.80
2023-04-25T09:56:59.187Z,0.88
2023-04-25T09:58:00.205Z,1.04
2023-04-25T09:59:00.191Z,1.16
2023-04-25T10:00:00.225Z,1.22
2023-04-25T10:00:59.181Z,1.35
2023-04-25T10:02:00.174Z,1.45
2023-04-25T10:02:59.299Z,1.51
2023-04-25T10:04:00.513Z,1.59
2023-04-25T10:04:59.171Z,1.70
2023-04-25T10:05:59.134Z,1.68
2023-04-25T10:06:59.223Z,1.73
2023-04-25T10:08:00.140Z,1.80
2023-04-25T10:09:00.139Z,1.79
2023-04-25T10:09:59.084Z,1.88
2023-04-25T10:10:59.091Z,1.91
2023-04-25T10:12:00.111Z,1.91
2023-04-25T10:13:00.113Z,1.88
2023-04-25T10:14:00.094Z,1.99
2023-04-25T10:15:00.098Z,2.01
2023-04-25T10:16:00.057Z,1.95
2023-04-25T10:16:59.049Z,2.02
2023-04-25T10:18:00.160Z,2.04
2023-04-25T10:18:59.052Z,2.00
2023-04-25T10:20:00.024Z,1.94
2023-04-25T10:20:59.021Z,1.95
2023-04-25T10:22:00.135Z,1.97
2023-04-25T10:23:00.014Z,1.93
2023-04-25T10:23:59.993Z,2.01
2023-04-25T10:24:59.037Z,1.99
2023-04-25T10:26:00.091Z,2.10
2023-04-25T10:26:59.092Z,2.07
2023-04-25T10:28:00.182Z,2.08
2023-04-25T10:28:59.191Z,2.11
2023-04-25T10:29:59.253Z,2.17
2023-04-25T10:30:59.366Z,2.16
2023-04-25T10:32:00.497Z,2.18
2023-04-25T10:33:00.436Z,2.24
2023-04-25T10:34:00.445Z,2.22
2023-04-25T10:35:00.562Z,2.21
2023-04-25T10:36:00.541Z,2.17
2023-04-25T10:36:59.525Z,2.08
2023-04-25T10:38:00.597Z,1.96
2023-04-25T10:38:59.508Z,2.02
2023-04-25T10:40:00.519Z,2.02
2023-04-25T10:40:59.503Z,2.08
2023-04-25T10:41:59.551Z,2.20
2023-04-25T10:42:59.506Z,2.31
2023-04-25T10:44:00.822Z,2.33
2023-04-25T10:45:00.523Z,2.35
2023-04-25T10:45:59.532Z,2.41
2023-04-25T10:47:00.661Z,2.47
2023-04-25T10:48:00.579Z,2.39
2023-04-25T10:49:00.545Z,2.55
2023-04-25T10:50:00.620Z,2.55
2023-04-25T10:51:00.670Z,2.49
2023-04-25T10:51:59.678Z,2.40
2023-04-25T10:53:00.804Z,2.48
2023-04-25T10:54:00.794Z,2.41
2023-04-25T10:55:00.891Z,2.41
2023-04-25T10:56:00.905Z,2.36
2023-04-25T10:56:59.972Z,2.30
2023-04-25T10:58:00.018Z,2.30
2023-04-25T10:59:00.009Z,2.27
2023-04-25T11:00:01.038Z,2.22
2023-04-25T11:01:01.124Z,2.27
2023-04-25T11:02:01.250Z,2.23
2023-04-25T11:03:00.353Z,2.23
2023-04-25T11:04:00.502Z,2.12
2023-04-25T11:05:00.236Z,2.09
2023-04-25T11:06:01.260Z,2.07
2023-04-25T11:07:06.372Z,2.04
2023-04-25T11:08:07.729Z,2.04
2023-04-25T11:09:01.304Z,2.04
2023-04-25T11:10:01.314Z,2.05
2023-04-25T11:11:01.277Z,2.04
2023-04-25T11:12:01.259Z,2.05
2023-04-25T11:13:01.266Z,2.05
2023-04-25T11:14:00.252Z,1.96
2023-04-25T11:15:01.263Z,1.98
2023-04-25T11:16:07.549Z,2.01
2023-04-25T11:17:01.454Z,2.01
2023-04-25T11:18:00.343Z,2.02
2023-04-25T11:19:00.236Z,1.99
2023-04-25T11:20:01.204Z,2.00
2023-04-25T11:21:01.215Z,2.12
2023-04-25T11:22:00.198Z,1.98
2023-04-25T11:23:00.229Z,1.98
2023-04-25T11:24:01.186Z,2.04
2023-04-25T11:25:01.192Z,2.04
2023-04-25T11:26:00.173Z,2.05
2023-04-25T11:27:01.163Z,2.14
2023-04-25T11:28:01.159Z,2.00
2023-04-25T11:29:01.140Z,1.96
2023-04-25T11:30:00.335Z,1.99
2023-04-25T11:31:01.166Z,1.89
2023-04-25T11:32:00.206Z,1.89
2023-04-25T11:33:00.159Z,1.87
2023-04-25T11:34:01.139Z,1.83
2023-04-25T11:35:01.113Z,1.87
2023-04-25T11:36:01.112Z,1.89
2023-04-25T11:37:01.109Z,1.89
2023-04-25T11:38:01.087Z,1.78
2023-04-25T11:39:01.320Z,1.61
2023-04-25T11:40:01.111Z,1.59
2023-04-25T11:41:00.074Z,1.61
2023-04-25T11:42:01.434Z,1.67
2023-04-25T11:43:00.065Z,1.62
2023-04-25T11:44:00.044Z,1.64
2023-04-25T11:45:01.047Z,1.66
2023-04-25T11:46:00.189Z,1.64
2023-04-25T11:47:01.177Z,1.61
2023-04-25T11:48:01.294Z,1.67
2023-04-25T11:49:00.284Z,1.67
2023-04-25T11:50:01.351Z,1.67
2023-04-25T11:51:00.412Z,1.65
2023-04-25T11:52:00.484Z,1.64
2023-04-25T11:53:00.538Z,1.67
2023-04-25T11:54:00.585Z,1.69
2023-04-25T11:55:01.723Z,1.65
2023-04-25T11:56:01.712Z,1.64
2023-04-25T11:57:00.766Z,1.66
2023-04-25T11:58:01.829Z,1.63
2023-04-25T11:59:01.936Z,1.58
2023-04-25T12:00:01.946Z,1.61
2023-04-25T12:01:01.030Z,1.61
2023-04-25T12:02:01.061Z,1.63
2023-04-25T12:03:01.212Z,1.60
2023-04-25T12:04:01.355Z,1.59
2023-04-25T12:05:15.840Z,1.54
2023-04-25T12:06:02.402Z,1.55
2023-04-25T12:07:01.354Z,1.55
2023-04-25T12:08:01.195Z,1.50
2023-04-25T12:09:02.153Z,1.55
2023-04-25T12:10:02.378Z,1.52
2023-04-25T12:11:02.172Z,1.48
2023-04-25T12:12:02.130Z,1.46
2023-04-25T12:13:01.125Z,1.51
2023-04-25T12:14:01.126Z,1.48
2023-04-25T12:15:01.137Z,1.51
2023-04-25T12:16:01.194Z,1.47
2023-04-25T12:17:02.223Z,1.48
2023-04-25T12:18:01.276Z,1.44
2023-04-25T12:19:02.288Z,1.44
2023-04-25T12:20:02.355Z,1.40
2023-04-25T12:21:02.397Z,1.39
2023-04-25T12:22:01.439Z,1.43
2023-04-25T12:23:01.484Z,1.44
2023-04-25T12:24:01.523Z,1.43
2023-04-25T12:25:01.561Z,1.38
2023-04-25T12:26:02.592Z,1.40
2023-04-25T12:27:02.711Z,1.43
2023-04-25T12:28:02.682Z,1.41
2023-04-25T12:29:01.737Z,1.40
2023-04-25T12:30:01.798Z,1.16
2023-04-25T12:31:02.867Z,0.50
2023-04-25T12:32:02.905Z,0.73
2023-04-25T12:33:02.970Z,0.90
2023-04-25T12:34:02.988Z,0.98
2023-04-25T12:35:03.051Z,1.11
2023-04-25T12:36:04.428Z,1.16
2023-04-25T12:37:03.065Z,1.18
2023-04-25T12:38:03.052Z,1.23
2023-04-25T12:39:02.040Z,1.26
2023-04-25T12:40:02.038Z,1.23
2023-04-25T12:41:02.051Z,1.23
2023-04-25T12:42:02.020Z,1.19
2023-04-25T12:43:02.110Z,1.42
2023-04-25T12:44:03.005Z,1.45
2023-04-25T12:45:03.006Z,0.70
2023-04-25T12:46:02.999Z,0.49
2023-04-25T12:47:02.190Z,0.43
2023-04-25T12:48:04.281Z,0.36
2023-04-25T12:49:11.972Z,0.34
2023-04-25T12:50:02.969Z,0.34
2023-04-25T12:51:01.959Z,0.34
2023-04-25T12:52:02.967Z,0.34
2023-04-25T12:53:02.937Z,0.34
2023-04-25T12:54:01.927Z,0.34
2023-04-25T12:55:01.945Z,0.85
2023-04-25T12:56:02.940Z,1.84
2023-04-25T12:57:02.924Z,2.28
2023-04-25T12:58:02.934Z,2.26
2023-04-25T12:59:01.987Z,1.86
2023-04-25T13:00:02.897Z,1.08
2023-04-25T13:01:01.977Z,0.73
2023-04-25T13:02:01.930Z,0.57
2023-04-25T13:03:01.976Z,0.58
2023-04-25T13:04:03.051Z,0.85
2023-04-25T13:05:02.854Z,1.48
2023-04-25T13:06:02.865Z,1.88
2023-04-25T13:07:01.853Z,2.19
2023-04-25T13:08:01.895Z,2.38
2023-04-25T13:09:02.867Z,2.50
2023-04-25T13:10:01.825Z,2.59
2023-04-25T13:11:01.822Z,2.91
2023-04-25T13:12:02.831Z,2.96
2023-04-25T13:13:01.838Z,2.96
2023-04-25T13:14:01.816Z,2.84
2023-04-25T13:15:01.841Z,2.72
2023-04-25T13:16:02.964Z,2.52
2023-04-25T13:17:01.914Z,2.59
2023-04-25T13:18:02.944Z,2.59
2023-04-25T13:19:01.762Z,2.62